Time;durP1;ratioP1;P1;durP2;ratioP2;P2;SDS_P1;SDS_P2;PMS_P1;PMS_P2;Temp;Humidity;BMP_temperature;BMP_pressure;BME280_temperature;BME280_humidity;BME280_pressure;Samples;Min_cycle;Max_cycle;Signal;HPM_P1;HPM_P2
2022/10/15 04:01:52;;;;;;;2.13;2.03;;;16.20;99.90;;;;;;5319160;23;20604;-64
2022/10/15 04:04:19;;;;;;;1.40;1.40;;;16.20;99.90;;;;;;4974648;28;20478;-63
2022/10/15 04:06:46;;;;;;;1.07;1.07;;;16.20;99.90;;;;;;4974910;28;20455;-65
2022/10/15 04:09:14;;;;;;;1.13;1.03;;;16.20;99.90;;;;;;4974941;28;20543;-64
2022/10/15 04:11:41;;;;;;;0.60;0.60;;;16.20;99.90;;;;;;4974615;28;20981;-63
2022/10/15 04:14:08;;;;;;;0.60;0.60;;;16.20;99.90;;;;;;4974926;28;20781;-63
2022/10/15 04:16:34;;;;;;;0.53;0.53;;;16.20;99.90;;;;;;4974838;28;20443;-63
2022/10/15 04:19:02;;;;;;;2.63;0.60;;;16.20;99.90;;;;;;4974879;28;20443;-64
2022/10/15 04:21:29;;;;;;;0.77;0.77;;;16.20;99.90;;;;;;4974830;28;20529;-63
2022/10/15 04:23:55;;;;;;;1.80;0.50;;;16.20;99.90;;;;;;4974691;28;20887;-64
2022/10/15 04:26:22;;;;;;;0.73;0.50;;;16.20;99.90;;;;;;4977866;28;20443;-63
2022/10/15 04:28:49;;;;;;;0.93;0.50;;;16.30;99.90;;;;;;4978288;28;20972;-63
2022/10/15 04:31:15;;;;;;;1.17;0.40;;;16.30;99.90;;;;;;4978420;28;20533;-63
2022/10/15 04:33:42;;;;;;;0.50;0.50;;;16.30;99.90;;;;;;4977981;28;20973;-64
2022/10/15 04:36:13;;;;;;;0.83;0.50;;;16.30;99.90;;;;;;4978425;28;20508;-63
2022/10/15 04:38:40;;;;;;;1.57;0.93;;;16.30;99.90;;;;;;4985371;28;20447;-63
2022/10/15 04:41:08;;;;;;;0.70;0.70;;;16.30;99.90;;;;;;4984908;28;20478;-64
2022/10/15 04:43:36;;;;;;;0.50;0.50;;;16.30;99.90;;;;;;4978280;28;20475;-64
2022/10/15 04:46:04;;;;;;;1.13;0.43;;;16.30;99.90;;;;;;4978346;28;21021;-64
2022/10/15 04:48:34;;;;;;;1.57;0.60;;;16.30;99.90;;;;;;4978244;28;20462;-64
2022/10/15 04:51:03;;;;;;;0.40;0.40;;;16.30;99.90;;;;;;4978148;28;20481;-64
2022/10/15 04:53:32;;;;;;;0.70;0.70;;;16.30;99.90;;;;;;4977979;28;20450;-64
2022/10/15 04:56:01;;;;;;;2.13;1.93;;;16.40;99.90;;;;;;4978064;28;20454;-64
2022/10/15 04:58:29;;;;;;;1.90;1.80;;;16.40;99.90;;;;;;4978185;28;20455;-64
2022/10/15 05:00:59;;;;;;;3.13;2.93;;;16.40;99.90;;;;;;4977749;28;20482;-64
2022/10/15 05:03:26;;;;;;;2.33;2.23;;;16.40;99.90;;;;;;4978444;28;20478;-64
2022/10/15 05:05:53;;;;;;;2.50;2.40;;;16.40;99.90;;;;;;4977750;28;20454;-64
2022/10/15 05:08:19;;;;;;;3.53;3.27;;;16.40;99.90;;;;;;4977678;28;20455;-64
2022/10/15 05:10:47;;;;;;;4.83;3.43;;;16.40;99.90;;;;;;4977522;28;20506;-64
2022/10/15 05:13:14;;;;;;;2.87;2.67;;;16.40;99.90;;;;;;4977332;28;20966;-64
2022/10/15 05:15:41;;;;;;;2.63;2.47;;;16.40;99.90;;;;;;4977552;28;20458;-64
2022/10/15 05:18:07;;;;;;;3.97;3.70;;;16.40;99.90;;;;;;4977478;28;20532;-64
2022/10/15 05:20:34;;;;;;;4.97;4.57;;;16.50;99.90;;;;;;4977957;28;20474;-64
2022/10/15 05:23:03;;;;;;;5.90;4.80;;;16.50;99.90;;;;;;4977162;28;20989;-64
2022/10/15 05:25:29;;;;;;;4.63;4.27;;;16.50;99.90;;;;;;4977432;28;20455;-64
2022/10/15 05:27:57;;;;;;;2.90;2.10;;;16.60;99.90;;;;;;4977292;28;20466;-64
2022/10/15 05:30:24;;;;;;;2.70;2.60;;;16.60;99.90;;;;;;4977301;28;20581;-64
2022/10/15 05:32:51;;;;;;;2.20;2.10;;;16.60;99.90;;;;;;4977235;28;20857;-63
2022/10/15 05:35:18;;;;;;;2.57;2.47;;;16.60;99.90;;;;;;4977581;28;20482;-63
2022/10/15 05:37:45;;;;;;;3.10;2.87;;;16.60;99.90;;;;;;4975966;28;20458;-63
2022/10/15 05:40:12;;;;;;;3.37;3.07;;;16.70;99.90;;;;;;4976607;28;20896;-64
2022/10/15 05:42:38;;;;;;;3.40;3.10;;;16.60;99.90;;;;;;4976560;28;20521;-64
2022/10/15 05:45:08;;;;;;;3.00;2.73;;;16.70;99.90;;;;;;4976582;28;20478;-63
2022/10/15 05:47:34;;;;;;;3.50;2.83;;;16.60;99.90;;;;;;4976679;28;20505;-64
2022/10/15 05:50:01;;;;;;;12.33;8.40;;;16.70;99.90;;;;;;4976471;28;21012;-65
2022/10/15 05:52:28;;;;;;;5.80;5.27;;;16.60;99.90;;;;;;4976685;28;20561;-64
2022/10/15 05:54:54;;;;;;;4.93;3.20;;;16.70;99.90;;;;;;4976822;28;20435;-63
2022/10/15 05:57:22;;;;;;;2.53;2.33;;;16.60;99.90;;;;;;4976709;28;20459;-63
2022/10/15 05:59:48;;;;;;;2.00;1.90;;;16.70;99.90;;;;;;4977536;28;20533;-63
2022/10/15 06:02:16;;;;;;;1.30;1.30;;;16.70;99.90;;;;;;4976812;28;20478;-65
2022/10/15 06:04:43;;;;;;;4.70;3.60;;;16.70;99.90;;;;;;4976679;28;20490;-64
2022/10/15 06:07:10;;;;;;;4.20;3.10;;;16.70;99.90;;;;;;4976613;28;20455;-63
2022/10/15 06:09:36;;;;;;;4.73;2.60;;;16.70;99.90;;;;;;4976477;28;20544;-63
2022/10/15 06:12:03;;;;;;;2.47;2.30;;;16.70;99.90;;;;;;4976658;28;20532;-63
2022/10/15 06:14:30;;;;;;;2.33;2.23;;;16.70;99.90;;;;;;4976425;28;20454;-64
2022/10/15 06:16:57;;;;;;;4.67;2.70;;;16.70;99.90;;;;;;4976342;28;20454;-63
2022/10/15 06:19:25;;;;;;;1.93;1.77;;;16.80;99.90;;;;;;4976017;28;21044;-63
2022/10/15 06:21:51;;;;;;;2.60;2.40;;;16.80;99.90;;;;;;4975950;28;20537;-64
2022/10/15 06:24:18;;;;;;;2.00;1.80;;;16.80;99.90;;;;;;4976538;28;20529;-63
2022/10/15 06:26:45;;;;;;;2.00;1.90;;;16.80;99.90;;;;;;4976204;28;20455;-63
2022/10/15 06:29:12;;;;;;;1.53;1.43;;;16.80;99.90;;;;;;4976440;28;20458;-64
2022/10/15 06:31:38;;;;;;;3.73;1.20;;;16.70;99.90;;;;;;4976144;28;20475;-63
2022/10/15 06:34:05;;;;;;;2.70;1.20;;;16.70;99.90;;;;;;4976040;28;20451;-64
2022/10/15 06:36:33;;;;;;;3.80;1.40;;;16.70;99.90;;;;;;4976238;28;20455;-63
2022/10/15 06:38:59;;;;;;;2.20;1.00;;;16.70;99.90;;;;;;4976077;28;20855;-64
2022/10/15 06:41:26;;;;;;;6.33;1.40;;;16.80;99.90;;;;;;4976055;28;20470;-64
2022/10/15 06:43:53;;;;;;;1.77;1.17;;;16.80;99.90;;;;;;4976095;28;20502;-63
2022/10/15 06:46:19;;;;;;;1.30;1.20;;;16.80;99.90;;;;;;4976073;28;20458;-63
2022/10/15 06:48:46;;;;;;;7.13;1.50;;;16.80;99.90;;;;;;4975653;28;20454;-63
2022/10/15 06:51:13;;;;;;;2.00;1.20;;;16.80;99.90;;;;;;4975878;28;20490;-63
2022/10/15 06:53:42;;;;;;;1.50;1.50;;;16.90;99.90;;;;;;4975824;28;20451;-63
2022/10/15 06:56:09;;;;;;;1.40;1.30;;;16.90;99.90;;;;;;4975641;28;20455;-63
2022/10/15 06:58:36;;;;;;;1.87;1.77;;;16.90;99.90;;;;;;4975804;28;20474;-63
2022/10/15 07:01:04;;;;;;;2.57;1.53;;;16.90;99.90;;;;;;4975303;28;20487;-64
2022/10/15 07:03:32;;;;;;;1.90;1.80;;;17.00;99.90;;;;;;4975238;28;21020;-63
2022/10/15 07:06:03;;;;;;;1.37;1.30;;;17.00;99.90;;;;;;4975278;28;20930;-64
2022/10/15 07:08:30;;;;;;;1.13;1.13;;;17.00;99.90;;;;;;4975639;28;20534;-63
2022/10/15 07:10:58;;;;;;;1.87;1.20;;;17.00;99.90;;;;;;4975489;28;20483;-63
2022/10/15 07:13:24;;;;;;;1.20;1.10;;;17.00;99.90;;;;;;4975707;28;20458;-63
2022/10/15 07:15:54;;;;;;;1.70;1.30;;;17.00;99.90;;;;;;4975397;28;20891;-63
2022/10/15 07:18:21;;;;;;;4.80;1.70;;;17.10;99.90;;;;;;4975682;28;20439;-63
2022/10/15 07:20:48;;;;;;;1.70;1.60;;;17.00;99.90;;;;;;4975120;28;20874;-63
2022/10/15 07:23:15;;;;;;;1.80;1.43;;;17.00;99.90;;;;;;4975332;28;20470;-63
2022/10/15 07:25:42;;;;;;;1.30;1.20;;;17.00;99.90;;;;;;4975288;28;20494;-64
2022/10/15 07:28:10;;;;;;;2.13;1.67;;;17.00;99.90;;;;;;4975442;28;20455;-63
2022/10/15 07:30:36;;;;;;;5.40;3.07;;;17.10;99.90;;;;;;4975126;28;20482;-64
2022/10/15 07:33:03;;;;;;;14.10;4.90;;;17.10;99.90;;;;;;4975254;28;20443;-63
2022/10/15 07:35:30;;;;;;;2.50;1.50;;;17.10;99.90;;;;;;4983585;28;20478;-64
2022/10/15 07:37:59;;;;;;;2.27;1.57;;;17.10;99.90;;;;;;4984447;28;20435;-64
2022/10/15 07:40:26;;;;;;;1.63;1.53;;;17.20;99.90;;;;;;4977167;28;20443;-65
2022/10/15 07:42:53;;;;;;;1.77;1.67;;;17.20;99.90;;;;;;4975533;28;20525;-63
2022/10/15 07:45:22;;;;;;;1.40;1.30;;;17.30;99.90;;;;;;4975992;28;20885;-62
2022/10/15 07:47:49;;;;;;;1.00;1.00;;;17.30;99.90;;;;;;4975441;28;20458;-64
2022/10/15 07:50:16;;;;;;;1.90;1.20;;;17.40;99.90;;;;;;4975081;28;20466;-63
2022/10/15 07:52:42;;;;;;;2.10;1.40;;;17.40;99.90;;;;;;4975306;28;20455;-63
2022/10/15 07:55:09;;;;;;;2.40;1.10;;;17.50;99.90;;;;;;4975518;28;20442;-64
2022/10/15 07:57:36;;;;;;;1.30;1.30;;;17.50;99.90;;;;;;4974711;28;20918;-64
2022/10/15 08:00:04;;;;;;;1.00;1.00;;;17.50;99.90;;;;;;4975328;28;20490;-63
2022/10/15 08:02:32;;;;;;;2.70;1.60;;;17.40;99.90;;;;;;4978647;28;20487;-63
2022/10/15 08:04:59;;;;;;;0.93;0.93;;;17.40;99.90;;;;;;4979225;28;20463;-63
2022/10/15 08:07:25;;;;;;;2.47;1.20;;;17.30;99.90;;;;;;4979090;28;20449;-63
2022/10/15 08:09:52;;;;;;;4.30;1.30;;;17.30;99.90;;;;;;4978928;28;20537;-64
2022/10/15 08:12:19;;;;;;;1.17;1.17;;;17.30;99.90;;;;;;4978835;28;20474;-65
2022/10/15 08:14:46;;;;;;;2.30;1.47;;;17.20;99.90;;;;;;4978948;28;20525;-64
2022/10/15 08:17:13;;;;;;;2.40;1.37;;;17.20;99.90;;;;;;4978304;28;20946;-64
2022/10/15 08:19:41;;;;;;;1.63;1.47;;;17.10;99.90;;;;;;4978727;28;20493;-64
2022/10/15 08:22:08;;;;;;;1.30;1.30;;;17.10;99.90;;;;;;4978599;28;20533;-64
2022/10/15 08:24:34;;;;;;;1.43;1.33;;;17.10;99.90;;;;;;4978639;28;20482;-63
2022/10/15 08:27:01;;;;;;;1.63;1.37;;;17.00;99.90;;;;;;4978739;28;20461;-64
2022/10/15 08:29:28;;;;;;;2.87;1.87;;;17.00;99.90;;;;;;4978494;28;20795;-65
2022/10/15 08:31:54;;;;;;;1.80;1.70;;;16.90;99.90;;;;;;4978378;28;20521;-63
2022/10/15 08:34:21;;;;;;;3.73;2.30;;;16.90;99.90;;;;;;4978409;28;20510;-63
2022/10/15 08:36:49;;;;;;;1.90;1.43;;;16.90;99.90;;;;;;4978662;28;20490;-63
2022/10/15 08:39:16;;;;;;;2.33;1.40;;;16.90;99.90;;;;;;4978558;28;20477;-64
2022/10/15 08:41:47;;;;;;;3.57;1.70;;;17.00;99.90;;;;;;4978185;28;20478;-63
2022/10/15 08:44:21;;;;;;;1.20;1.20;;;17.00;99.90;;;;;;4978168;28;20466;-63
2022/10/15 08:46:50;;;;;;;1.37;1.33;;;17.00;99.90;;;;;;4978278;28;20458;-64
2022/10/15 08:49:35;;;;;;;1.63;1.63;;;17.00;99.90;;;;;;4978228;28;20515;-64
2022/10/15 08:52:13;;;;;;;2.93;1.50;;;17.00;99.90;;;;;;4978143;28;20902;-64
2022/10/15 08:54:40;;;;;;;2.20;1.60;;;16.90;99.90;;;;;;4978277;28;20474;-64
2022/10/15 08:57:17;;;;;;;1.50;1.40;;;16.90;99.90;;;;;;4978005;28;20505;-64
2022/10/15 08:59:53;;;;;;;3.53;1.37;;;16.90;99.90;;;;;;4978002;28;20549;-64
2022/10/15 09:02:25;;;;;;;4.53;1.90;;;16.90;99.90;;;;;;4977559;28;21031;-64
2022/10/15 09:04:57;;;;;;;1.33;1.33;;;16.80;99.90;;;;;;4977738;28;20498;-64
2022/10/15 09:07:31;;;;;;;2.67;1.67;;;16.80;99.90;;;;;;4977795;28;20569;-65
2022/10/15 09:10:06;;;;;;;3.37;1.60;;;16.90;99.90;;;;;;4977530;28;20910;-63
2022/10/15 09:12:42;;;;;;;2.20;1.40;;;16.90;99.90;;;;;;4977814;28;20473;-63
2022/10/15 09:15:14;;;;;;;3.23;1.60;;;16.90;99.90;;;;;;4977712;28;20450;-65
2022/10/15 09:17:42;;;;;;;1.80;1.70;;;17.00;99.90;;;;;;4977690;28;20478;-64
2022/10/15 09:20:16;;;;;;;1.70;1.53;;;17.00;99.90;;;;;;4977634;28;20450;-64
2022/10/15 09:22:48;;;;;;;3.17;2.70;;;17.00;99.90;;;;;;4977536;28;20439;-63
2022/10/15 09:25:17;;;;;;;2.80;2.30;;;17.10;99.90;;;;;;4977369;28;20467;-63
2022/10/15 09:27:46;;;;;;;3.63;3.00;;;17.10;99.90;;;;;;4977395;28;20458;-63
2022/10/15 09:30:25;;;;;;;3.67;2.93;;;17.00;99.90;;;;;;4977688;28;20462;-63
2022/10/15 09:32:59;;;;;;;2.10;2.00;;;17.00;99.90;;;;;;4977353;28;20497;-63
2022/10/15 09:35:30;;;;;;;2.83;2.10;;;17.00;99.90;;;;;;4977169;28;20439;-64
2022/10/15 09:38:12;;;;;;;2.13;2.03;;;17.10;99.90;;;;;;4977208;28;20837;-63
2022/10/15 09:40:50;;;;;;;1.93;1.83;;;17.10;99.90;;;;;;4977313;28;20825;-63
2022/10/15 09:43:29;;;;;;;2.40;1.70;;;17.10;99.90;;;;;;4977191;28;20443;-64
2022/10/15 09:45:56;;;;;;;1.70;1.60;;;17.10;99.90;;;;;;4977113;28;20463;-65
2022/10/15 09:48:24;;;;;;;2.20;1.70;;;17.10;99.90;;;;;;4976957;28;20872;-65
2022/10/15 09:50:59;;;;;;;2.17;2.07;;;17.10;99.90;;;;;;4977379;28;20475;-63
2022/10/15 09:53:44;;;;;;;5.37;2.53;;;17.20;99.90;;;;;;4978323;28;20442;-63
2022/10/15 09:56:16;;;;;;;2.30;2.10;;;17.20;99.90;;;;;;4977811;28;20435;-63
2022/10/15 09:58:49;;;;;;;3.23;2.20;;;17.30;99.90;;;;;;4977868;28;20497;-64
2022/10/15 10:01:22;;;;;;;2.80;2.00;;;17.40;99.90;;;;;;4977229;28;20490;-64
2022/10/15 10:03:52;;;;;;;2.40;1.50;;;17.40;99.90;;;;;;4976866;28;20513;-65
2022/10/15 10:06:20;;;;;;;2.30;2.10;;;17.50;99.90;;;;;;4976812;28;20894;-66
2022/10/15 10:08:51;;;;;;;1.67;1.57;;;17.60;99.90;;;;;;4976787;28;20537;-66
2022/10/15 10:11:19;;;;;;;1.97;1.60;;;17.70;99.90;;;;;;4976592;28;20834;-66
2022/10/15 10:13:51;;;;;;;1.43;1.17;;;17.70;99.90;;;;;;4976717;28;20455;-66
2022/10/15 10:16:20;;;;;;;1.60;1.50;;;17.90;99.90;;;;;;4976514;28;20439;-66
2022/10/15 10:19:03;;;;;;;1.43;1.20;;;18.00;99.90;;;;;;4976608;28;20461;-66
2022/10/15 10:21:31;;;;;;;1.33;1.10;;;18.20;99.90;;;;;;4976371;28;20479;-67
2022/10/15 10:24:18;;;;;;;1.03;1.03;;;18.30;99.90;;;;;;4975826;28;20450;-66
2022/10/15 10:26:46;;;;;;;0.90;0.90;;;18.40;99.90;;;;;;4976108;28;20911;-65
2022/10/15 10:29:19;;;;;;;2.80;0.73;;;18.40;99.90;;;;;;4976313;28;20509;-66
2022/10/15 10:31:49;;;;;;;0.77;0.77;;;18.60;99.90;;;;;;4981391;28;20505;-64
2022/10/15 10:34:18;;;;;;;2.03;1.93;;;18.60;99.90;;;;;;4981275;28;20538;-65
2022/10/15 10:36:49;;;;;;;0.77;0.77;;;18.60;99.90;;;;;;4977512;28;20458;-65
2022/10/15 10:39:24;;;;;;;1.50;0.90;;;18.60;99.90;;;;;;4975723;28;20906;-65
2022/10/15 10:41:52;;;;;;;1.90;1.30;;;18.60;99.90;;;;;;4976055;28;20481;-65
2022/10/15 10:44:23;;;;;;;1.40;1.30;;;18.60;99.90;;;;;;4976024;28;20455;-65
2022/10/15 10:47:10;;;;;;;2.30;1.20;;;18.70;99.90;;;;;;4976071;28;20501;-64
2022/10/15 10:49:38;;;;;;;1.03;0.90;;;18.70;99.90;;;;;;4975875;28;20459;-65
2022/10/15 10:52:05;;;;;;;6.60;1.30;;;18.80;99.90;;;;;;4975787;28;20474;-64
2022/10/15 10:54:34;;;;;;;1.17;1.17;;;19.00;99.90;;;;;;4975912;28;20820;-65
2022/10/15 10:57:01;;;;;;;1.47;1.37;;;19.00;99.90;;;;;;4975798;28;20462;-64
2022/10/15 10:59:32;;;;;;;2.33;1.37;;;19.10;99.90;;;;;;4976555;28;20878;-64
2022/10/15 11:01:59;;;;;;;1.10;0.97;;;19.10;99.90;;;;;;4976134;28;20492;-64
2022/10/15 11:04:28;;;;;;;0.90;0.90;;;19.00;99.90;;;;;;4975491;28;20528;-64
2022/10/15 11:07:03;;;;;;;2.23;2.03;;;18.90;99.90;;;;;;4975241;28;20977;-64
2022/10/15 11:09:46;;;;;;;1.60;1.60;;;18.80;99.90;;;;;;4975494;28;20434;-64
2022/10/15 11:12:30;;;;;;;0.90;0.90;;;18.80;99.90;;;;;;4975421;28;20891;-63
2022/10/15 11:15:04;;;;;;;0.70;0.70;;;18.90;99.90;;;;;;4975672;28;20850;-64
2022/10/15 11:17:42;;;;;;;1.00;1.00;;;19.00;99.90;;;;;;4975060;28;20910;-64
2022/10/15 11:20:18;;;;;;;1.40;0.80;;;19.20;99.90;;;;;;4975420;28;20469;-64
2022/10/15 11:22:56;;;;;;;0.73;0.70;;;19.30;99.90;;;;;;4975406;28;20474;-64
2022/10/15 11:25:34;;;;;;;1.17;1.17;;;19.40;99.90;;;;;;4975384;28;20463;-64
2022/10/15 11:28:11;;;;;;;0.70;0.70;;;19.60;99.90;;;;;;4975297;28;20438;-64
2022/10/15 11:30:49;;;;;;;2.00;1.03;;;19.60;99.90;;;;;;4975389;28;20513;-64
2022/10/15 11:33:29;;;;;;;1.10;1.00;;;19.60;99.90;;;;;;4975472;28;20505;-63
2022/10/15 11:36:10;;;;;;;1.93;1.00;;;19.60;99.90;;;;;;4974322;28;20438;-64
2022/10/15 11:38:43;;;;;;;7.40;0.97;;;19.70;99.90;;;;;;4975176;28;20446;-64
2022/10/15 11:41:34;;;;;;;0.67;0.67;;;19.70;99.90;;;;;;4975164;28;20537;-64
2022/10/15 11:44:21;;;;;;;0.70;0.70;;;19.80;99.90;;;;;;4975211;28;20847;-64
2022/10/15 11:46:58;;;;;;;0.60;0.60;;;19.90;99.90;;;;;;4975019;28;20521;-65
2022/10/15 11:49:40;;;;;;;0.90;0.90;;;20.00;99.90;;;;;;4975012;28;20501;-64
2022/10/15 11:52:21;;;;;;;0.67;0.67;;;19.90;99.90;;;;;;4974863;28;20537;-65
2022/10/15 11:55:00;;;;;;;0.80;0.80;;;19.80;99.90;;;;;;4974842;28;20799;-65
2022/10/15 11:57:31;;;;;;;1.23;0.73;;;19.90;99.90;;;;;;4975102;28;20977;-64
2022/10/15 12:00:02;;;;;;;1.80;0.83;;;19.90;99.90;;;;;;4975525;28;20498;-64
2022/10/15 12:02:31;;;;;;;1.13;0.90;;;20.00;99.90;;;;;;4974682;28;20541;-64
2022/10/15 12:05:01;;;;;;;0.70;0.60;;;20.10;99.90;;;;;;4974950;28;20515;-65
2022/10/15 12:07:34;;;;;;;1.80;0.97;;;20.10;99.90;;;;;;4974613;28;20943;-64
2022/10/15 12:10:16;;;;;;;1.03;0.57;;;20.10;99.90;;;;;;4974832;28;20443;-64
2022/10/15 12:12:49;;;;;;;1.37;0.80;;;20.20;99.90;;;;;;4974808;28;20449;-65
2022/10/15 12:15:27;;;;;;;2.07;0.80;;;20.10;99.90;;;;;;4974964;28;20509;-64
2022/10/15 12:18:03;;;;;;;1.37;1.23;;;20.00;99.90;;;;;;4974684;28;20493;-64
2022/10/15 12:20:30;;;;;;;1.47;0.90;;;19.90;99.90;;;;;;4974681;28;20442;-65
2022/10/15 12:22:59;;;;;;;0.97;0.87;;;19.80;99.90;;;;;;4974555;28;20451;-64
2022/10/15 12:25:46;;;;;;;1.13;0.77;;;19.80;99.90;;;;;;4974472;28;21024;-64
2022/10/15 12:28:17;;;;;;;2.47;1.30;;;19.80;99.90;;;;;;4974652;28;20451;-64
2022/10/15 12:31:00;;;;;;;1.30;1.30;;;19.70;99.90;;;;;;4974437;28;20815;-64
2022/10/15 12:33:33;;;;;;;0.90;0.90;;;19.70;99.90;;;;;;4974552;28;20443;-64
2022/10/15 12:36:02;;;;;;;0.80;0.80;;;19.60;99.90;;;;;;4974514;28;20517;-64
2022/10/15 12:38:31;;;;;;;0.83;0.80;;;19.50;99.90;;;;;;4974515;28;20541;-65
2022/10/15 12:41:03;;;;;;;1.10;1.00;;;19.30;99.90;;;;;;4975040;28;20478;-65
2022/10/15 12:43:35;;;;;;;1.90;1.20;;;19.30;99.90;;;;;;4974391;28;20889;-64
2022/10/15 12:46:03;;;;;;;1.30;0.90;;;19.20;99.90;;;;;;4974500;28;20993;-65
2022/10/15 12:48:35;;;;;;;2.30;0.90;;;19.10;99.90;;;;;;4978171;28;20454;-65
2022/10/15 12:51:41;;;;;;;1.23;1.13;;;19.10;99.90;;;;;;4978010;28;20529;-64
2022/10/15 12:54:41;;;;;;;2.63;1.20;;;19.00;99.90;;;;;;4978155;28;20469;-65
2022/10/15 12:57:45;;;;;;;0.80;0.80;;;18.90;99.90;;;;;;4937383;29;20980;-63
2022/10/15 13:00:35;;;;;;;0.90;0.90;;;18.90;99.90;;;;;;4937552;29;20456;-64
2022/10/15 13:03:17;;;;;;;2.97;1.23;;;18.90;99.90;;;;;;4971671;28;20926;-65
2022/10/15 13:05:44;;;;;;;0.90;0.90;;;18.90;99.90;;;;;;4977736;28;20970;-65
2022/10/15 13:08:21;;;;;;;2.70;0.90;;;19.00;99.90;;;;;;4977671;28;20458;-64
2022/10/15 13:10:52;;;;;;;1.03;1.03;;;19.10;99.90;;;;;;4977611;28;20974;-65
2022/10/15 13:13:22;;;;;;;1.20;0.87;;;19.10;99.90;;;;;;4978940;28;20513;-64
2022/10/15 13:15:59;;;;;;;1.20;0.90;;;19.10;99.90;;;;;;4979294;28;20494;-64
2022/10/15 13:18:27;;;;;;;1.10;1.00;;;19.10;99.90;;;;;;4978720;28;20914;-64
2022/10/15 13:20:55;;;;;;;1.33;0.70;;;19.20;99.90;;;;;;4978390;28;20489;-65
2022/10/15 13:23:26;;;;;;;1.27;0.90;;;19.20;99.90;;;;;;4977521;28;20934;-64
2022/10/15 13:26:10;;;;;;;1.07;0.97;;;19.10;99.90;;;;;;4977486;28;20467;-64
2022/10/15 13:28:38;;;;;;;1.23;1.13;;;19.20;99.90;;;;;;4985175;28;20537;-65
2022/10/15 13:31:12;;;;;;;2.50;1.37;;;19.20;99.90;;;;;;4989119;28;20824;-65
2022/10/15 13:33:41;;;;;;;1.00;1.00;;;19.20;99.90;;;;;;4980981;28;20498;-64
2022/10/15 13:36:09;;;;;;;1.53;1.47;;;19.20;99.90;;;;;;4977557;28;20451;-64
2022/10/15 13:38:38;;;;;;;1.13;1.13;;;19.20;99.90;;;;;;4977455;28;20506;-65
2022/10/15 13:41:05;;;;;;;1.03;1.03;;;19.10;99.90;;;;;;4977268;28;20533;-65
2022/10/15 13:43:31;;;;;;;1.00;1.00;;;19.20;99.90;;;;;;4976978;28;20517;-65
2022/10/15 13:46:00;;;;;;;1.10;1.10;;;19.10;99.90;;;;;;4977167;28;20482;-64
2022/10/15 13:48:30;;;;;;;1.07;1.00;;;19.00;99.90;;;;;;4977203;28;20466;-65
2022/10/15 13:50:59;;;;;;;0.90;0.90;;;19.00;99.90;;;;;;4977518;28;20487;-65
2022/10/15 13:53:29;;;;;;;1.17;1.10;;;18.90;99.90;;;;;;4976676;28;21009;-64
2022/10/15 13:55:58;;;;;;;0.90;0.90;;;18.90;99.90;;;;;;4976821;28;20459;-65
2022/10/15 13:58:26;;;;;;;1.23;1.00;;;18.80;99.90;;;;;;4976143;28;20463;-65
2022/10/15 14:00:58;;;;;;;1.40;1.40;;;18.80;99.90;;;;;;4976604;28;20537;-64
2022/10/15 14:03:27;;;;;;;1.63;1.53;;;18.70;99.90;;;;;;4976720;28;20459;-64
2022/10/15 14:05:56;;;;;;;1.93;0.93;;;18.80;99.90;;;;;;4976814;28;20814;-64
2022/10/15 14:08:26;;;;;;;1.27;1.10;;;18.70;99.90;;;;;;4976625;28;20793;-64
2022/10/15 14:10:57;;;;;;;1.40;1.00;;;18.70;99.90;;;;;;4976495;28;20475;-64
2022/10/15 14:13:24;;;;;;;1.43;1.33;;;18.60;99.90;;;;;;4977420;28;20462;-64
2022/10/15 14:15:57;;;;;;;1.47;1.10;;;18.60;99.90;;;;;;4976526;28;20930;-65
2022/10/15 14:18:34;;;;;;;1.20;1.10;;;18.70;99.90;;;;;;4977430;28;20446;-65
2022/10/15 14:21:03;;;;;;;1.93;1.70;;;18.60;99.90;;;;;;4976977;28;20474;-64
2022/10/15 14:23:31;;;;;;;0.83;0.83;;;18.60;99.90;;;;;;4976841;28;20950;-65
2022/10/15 14:25:59;;;;;;;4.27;1.40;;;18.60;99.90;;;;;;4976710;28;20479;-64
2022/10/15 14:28:28;;;;;;;2.57;1.40;;;18.60;99.90;;;;;;4976369;28;20454;-64
2022/10/15 14:30:56;;;;;;;2.47;1.30;;;18.60;99.90;;;;;;4976626;28;20471;-64
2022/10/15 14:33:48;;;;;;;1.43;1.03;;;18.50;99.90;;;;;;4975807;28;20938;-64
2022/10/15 14:36:26;;;;;;;1.97;1.47;;;18.30;99.90;;;;;;4975848;28;20446;-64
2022/10/15 14:38:55;;;;;;;2.43;1.20;;;18.20;99.90;;;;;;4976329;28;20489;-64
2022/10/15 14:41:29;;;;;;;7.50;1.33;;;18.10;99.90;;;;;;4975427;28;20533;-64
2022/10/15 14:44:06;;;;;;;1.30;1.13;;;18.00;99.90;;;;;;4975760;28;20497;-64
2022/10/15 14:46:42;;;;;;;1.50;1.17;;;18.00;99.90;;;;;;4975661;28;20490;-64
2022/10/15 14:49:25;;;;;;;1.47;1.37;;;18.00;99.90;;;;;;4975957;28;20443;-64
2022/10/15 14:51:56;;;;;;;4.23;1.73;;;18.00;99.90;;;;;;4975437;28;21057;-66
2022/10/15 14:54:28;;;;;;;2.30;1.30;;;18.00;99.90;;;;;;4975553;28;20938;-66
2022/10/15 14:56:55;;;;;;;1.60;1.50;;;18.10;99.90;;;;;;4975827;28;20439;-65
2022/10/15 14:59:28;;;;;;;1.30;1.30;;;18.10;99.90;;;;;;4975706;28;20455;-64
2022/10/15 15:01:58;;;;;;;3.13;1.50;;;18.20;99.90;;;;;;4975456;28;20513;-64
2022/10/15 15:04:36;;;;;;;1.87;1.40;;;18.20;99.90;;;;;;4975720;28;20455;-64
2022/10/15 15:07:11;;;;;;;2.30;1.40;;;18.40;99.90;;;;;;4975558;28;20482;-65
2022/10/15 15:09:39;;;;;;;2.30;1.40;;;18.40;99.90;;;;;;4975411;28;20493;-65
2022/10/15 15:12:06;;;;;;;1.87;1.73;;;18.50;99.90;;;;;;4975369;28;20516;-64
2022/10/15 15:14:33;;;;;;;1.00;1.00;;;18.50;99.90;;;;;;4975495;28;20459;-65
2022/10/15 15:17:00;;;;;;;1.17;1.17;;;18.50;99.90;;;;;;4975696;28;20510;-64
2022/10/15 15:19:27;;;;;;;2.20;1.37;;;18.50;99.90;;;;;;4975959;28;20458;-64
2022/10/15 15:21:53;;;;;;;2.50;1.33;;;18.50;99.90;;;;;;4975502;28;20509;-65
2022/10/15 15:24:21;;;;;;;1.20;1.20;;;18.60;99.90;;;;;;4976300;28;20490;-64
2022/10/15 15:26:48;;;;;;;1.57;1.47;;;18.50;99.90;;;;;;4975576;28;20482;-64
2022/10/15 15:29:14;;;;;;;2.40;1.53;;;18.50;99.90;;;;;;4975232;28;20887;-65
2022/10/15 15:31:41;;;;;;;1.80;1.53;;;18.60;99.90;;;;;;4975320;28;20474;-65
2022/10/15 15:34:08;;;;;;;1.80;1.70;;;18.60;99.90;;;;;;4975174;28;20458;-64
2022/10/15 15:36:35;;;;;;;3.17;1.50;;;18.60;99.90;;;;;;4975182;28;20583;-64
2022/10/15 15:39:02;;;;;;;3.50;1.10;;;18.60;99.90;;;;;;4974710;28;20942;-64
2022/10/15 15:41:30;;;;;;;1.30;1.20;;;18.60;99.90;;;;;;4975040;28;20474;-64
2022/10/15 15:43:56;;;;;;;1.40;1.30;;;18.60;99.90;;;;;;4975140;28;20508;-65
2022/10/15 15:46:23;;;;;;;1.80;1.70;;;18.60;99.90;;;;;;4974841;28;20993;-65
2022/10/15 15:48:50;;;;;;;1.70;1.53;;;18.70;99.90;;;;;;4974907;28;20513;-64
2022/10/15 15:51:23;;;;;;;2.67;1.47;;;18.70;99.90;;;;;;4974841;28;20532;-64
2022/10/15 15:53:50;;;;;;;1.60;1.50;;;18.70;99.90;;;;;;4974944;28;20804;-64
2022/10/15 15:56:17;;;;;;;1.50;1.40;;;18.70;99.90;;;;;;4974874;28;20459;-65
2022/10/15 15:58:45;;;;;;;3.73;1.47;;;18.80;99.90;;;;;;4974452;28;20945;-65
2022/10/15 16:01:12;;;;;;;6.37;1.70;;;18.90;99.90;;;;;;4974683;28;20490;-64
2022/10/15 16:03:38;;;;;;;1.20;1.10;;;18.90;99.90;;;;;;4974467;28;20942;-64
2022/10/15 16:06:06;;;;;;;1.73;1.40;;;18.90;99.90;;;;;;4974342;28;21016;-64
2022/10/15 16:08:34;;;;;;;3.17;1.30;;;19.00;99.90;;;;;;4974670;28;20458;-65
2022/10/15 16:11:01;;;;;;;2.27;1.17;;;19.00;99.90;;;;;;4974530;28;20529;-64
2022/10/15 16:13:28;;;;;;;1.90;1.40;;;19.00;99.90;;;;;;4974657;28;20497;-64
2022/10/15 16:15:56;;;;;;;1.43;1.33;;;19.00;99.90;;;;;;4974399;28;20490;-64
2022/10/15 16:18:22;;;;;;;1.87;1.40;;;19.00;99.90;;;;;;4974527;28;20455;-64
2022/10/15 16:20:49;;;;;;;4.10;1.40;;;18.90;99.90;;;;;;4974597;28;20475;-64
2022/10/15 16:23:16;;;;;;;1.40;1.13;;;18.90;99.90;;;;;;4978210;28;20958;-64
2022/10/15 16:25:43;;;;;;;1.57;1.20;;;18.80;99.90;;;;;;4978426;28;20546;-64
2022/10/15 16:28:10;;;;;;;0.77;0.77;;;18.70;99.90;;;;;;4978840;28;20490;-64
2022/10/15 16:30:36;;;;;;;1.60;0.80;;;18.60;99.90;;;;;;4978225;28;20454;-64
2022/10/15 16:33:05;;;;;;;2.23;1.03;;;18.50;99.90;;;;;;4978284;28;20939;-64
2022/10/15 16:35:32;;;;;;;1.13;0.70;;;18.40;99.90;;;;;;4978057;28;21016;-64
2022/10/15 16:37:59;;;;;;;2.33;1.20;;;18.30;99.90;;;;;;4978222;28;20454;-64
2022/10/15 16:40:26;;;;;;;0.90;0.90;;;18.30;99.90;;;;;;4978120;28;20854;-64
2022/10/15 16:42:52;;;;;;;1.37;1.27;;;18.30;99.90;;;;;;4977915;28;20458;-64
2022/10/15 16:45:19;;;;;;;1.00;1.00;;;18.30;99.90;;;;;;4978020;28;20458;-64
2022/10/15 16:47:46;;;;;;;1.17;1.17;;;18.30;99.90;;;;;;4978006;28;20482;-65
2022/10/15 16:50:14;;;;;;;3.00;1.00;;;18.20;99.90;;;;;;4978032;28;20454;-64
2022/10/15 16:52:40;;;;;;;1.60;0.80;;;18.10;99.90;;;;;;4977590;28;20905;-65
2022/10/15 16:55:08;;;;;;;0.80;0.80;;;18.00;99.90;;;;;;4978383;28;20513;-65
2022/10/15 16:57:34;;;;;;;1.20;1.10;;;18.00;99.90;;;;;;4978157;28;20450;-65
2022/10/15 17:00:01;;;;;;;1.00;0.83;;;18.00;99.90;;;;;;4977811;28;20462;-65
2022/10/15 17:02:27;;;;;;;1.57;0.90;;;18.00;99.90;;;;;;4977684;28;20490;-65
2022/10/15 17:04:54;;;;;;;3.93;1.00;;;17.90;99.90;;;;;;4977463;28;20949;-64